Pendaries, New Mexico
Current Conditions -  °F | °C
As of 9:38 AM on Tuesday 21 Oct 2014 (Local Time) from KLVS Reporting Station
Overcast Overcast  
Wind Chill: 51°   Ceiling: 2100
Heat Index: 51°   Visibility: 10mi
Dew Point: 46°   Wind: 6mph
Humidity: 83%   Direction: 210°SSW
Pressure: 30.24"   Gusts: NA
Location:  35.8214°N, 105.333°W
Report Text: KLVS 211538Z AUTO 21005KT 10SM SCT016 BKN021 OVC070 11/08 A3024 RMK AO2 T01060078
Loading
Personal Weather Stations






























Interactive Weather Map
Tropical Storm Tracking
New forecast layout! Learn more

10-Day Weather Forecast

Advertisements
Track Severe Weather on mobile